Time;durP1;ratioP1;P1;durP2;ratioP2;P2;SDS_P1;SDS_P2;PMS_P1;PMS_P2;Temp;Humidity;BMP_temperature;BMP_pressure;BME280_temperature;BME280_humidity;BME280_pressure;Samples;Min_cycle;Max_cycle;Signal;HPM_P1;HPM_P2
2022/05/27 00:00:55;;;;;;;1.47;1.37;;;16.60;99.90;;;;;;5086573;28;20644;-88
2022/05/27 00:03:22;;;;;;;1.30;1.20;;;16.70;99.90;;;;;;5079372;28;20650;-88
2022/05/27 00:05:50;;;;;;;2.17;1.17;;;16.60;99.90;;;;;;5084861;28;21013;-88
2022/05/27 00:08:17;;;;;;;2.07;1.27;;;16.60;99.90;;;;;;5084627;28;21026;-89
2022/05/27 00:10:44;;;;;;;1.80;1.70;;;16.60;99.90;;;;;;5085901;28;20641;-88
2022/05/27 00:13:12;;;;;;;1.63;1.53;;;16.50;99.90;;;;;;5084451;28;20644;-88
2022/05/27 00:15:41;;;;;;;1.90;1.20;;;16.50;99.90;;;;;;5085441;28;20624;-89
2022/05/27 00:18:08;;;;;;;1.60;1.50;;;16.50;99.90;;;;;;5085014;28;20717;-88
2022/05/27 00:20:36;;;;;;;3.10;1.60;;;16.40;99.90;;;;;;5084669;28;20898;-88
2022/05/27 00:23:03;;;;;;;1.17;1.17;;;16.40;99.90;;;;;;5088809;28;20612;-89
2022/05/27 00:25:30;;;;;;;1.30;1.20;;;16.30;99.90;;;;;;5087762;28;20629;-88
2022/05/27 00:27:57;;;;;;;1.50;1.30;;;16.30;99.90;;;;;;5086648;28;20625;-88
2022/05/27 00:30:25;;;;;;;1.57;1.37;;;16.30;99.90;;;;;;5085022;28;20682;-88
2022/05/27 00:32:53;;;;;;;1.53;1.40;;;16.30;99.90;;;;;;5085283;28;20928;-88
2022/05/27 00:35:20;;;;;;;2.40;1.50;;;16.30;99.90;;;;;;5083195;28;20690;-88
2022/05/27 00:37:47;;;;;;;2.03;1.43;;;16.30;99.90;;;;;;5080973;28;20620;-88
2022/05/27 00:40:15;;;;;;;2.27;1.30;;;16.30;99.90;;;;;;5085987;28;20678;-88
2022/05/27 00:42:44;;;;;;;2.20;1.27;;;16.20;99.90;;;;;;5085368;28;20632;-88
2022/05/27 00:45:16;;;;;;;1.67;1.07;;;16.20;99.90;;;;;;5085101;28;21075;-89
2022/05/27 00:47:45;;;;;;;1.87;1.30;;;16.20;99.90;;;;;;5075567;28;20635;-89
2022/05/27 00:50:17;;;;;;;1.30;1.20;;;16.20;99.90;;;;;;5079816;28;20735;-88
2022/05/27 00:52:46;;;;;;;1.20;1.10;;;16.20;99.90;;;;;;5086203;28;20624;-89
2022/05/27 00:55:18;;;;;;;3.53;1.30;;;16.20;99.90;;;;;;5082880;28;20601;-88
2022/05/27 00:57:48;;;;;;;1.27;1.17;;;16.10;99.90;;;;;;5087663;28;20650;-88
2022/05/27 01:00:18;;;;;;;3.10;1.80;;;16.10;99.90;;;;;;5088138;28;21438;-88
2022/05/27 01:02:46;;;;;;;1.57;1.20;;;16.10;99.90;;;;;;5082238;28;20625;-88
2022/05/27 01:05:17;;;;;;;1.03;0.93;;;16.10;99.90;;;;;;5084141;28;20617;-88
2022/05/27 01:07:44;;;;;;;1.77;1.67;;;16.00;99.90;;;;;;5082091;28;20624;-88
2022/05/27 01:10:15;;;;;;;3.27;1.33;;;16.00;99.90;;;;;;5085301;28;21006;-89
2022/05/27 01:13:09;;;;;;;1.70;1.20;;;15.90;99.90;;;;;;5086071;28;20624;-88
2022/05/27 01:15:45;;;;;;;2.10;1.27;;;15.90;99.90;;;;;;5084099;28;20616;-88
2022/05/27 01:21:19;;;;;;;1.33;1.23;;;15.80;99.90;;;;;;5082307;28;20655;-88
2022/05/27 01:24:09;;;;;;;1.80;1.20;;;15.80;99.90;;;;;;5085861;28;20629;-88
2022/05/27 01:26:56;;;;;;;1.40;1.30;;;15.90;99.90;;;;;;5083841;28;20584;-88
2022/05/27 01:29:54;;;;;;;3.37;1.33;;;15.80;99.90;;;;;;5072707;28;20639;-88
2022/05/27 01:32:33;;;;;;;1.40;1.23;;;15.80;99.90;;;;;;5077743;28;20619;-88
2022/05/27 01:35:07;;;;;;;2.13;1.30;;;15.80;99.90;;;;;;5080733;28;20628;-87
2022/05/27 01:37:50;;;;;;;1.00;0.93;;;15.80;99.90;;;;;;5085018;28;21177;-88
2022/05/27 01:40:28;;;;;;;2.10;1.50;;;15.90;99.90;;;;;;5085687;28;20683;-88
2022/05/27 01:43:02;;;;;;;1.60;1.17;;;15.80;99.90;;;;;;5084368;28;20631;-88
2022/05/27 01:45:35;;;;;;;2.23;1.33;;;15.80;99.90;;;;;;5080396;28;20632;-88
2022/05/27 01:48:11;;;;;;;2.07;1.20;;;15.80;99.90;;;;;;5080346;28;20624;-88
2022/05/27 01:50:45;;;;;;;1.40;1.30;;;15.80;99.90;;;;;;5081656;28;20674;-88
2022/05/27 01:53:18;;;;;;;1.50;1.20;;;15.80;99.90;;;;;;5084703;28;20631;-88
2022/05/27 01:55:53;;;;;;;1.27;1.10;;;15.70;99.90;;;;;;5085962;28;20581;-88
2022/05/27 01:58:24;;;;;;;1.73;1.50;;;15.80;99.90;;;;;;5080389;28;20677;-88
2022/05/27 02:00:51;;;;;;;1.07;0.97;;;15.80;99.90;;;;;;5081227;28;20663;-88
2022/05/27 02:03:23;;;;;;;1.53;1.23;;;15.80;99.90;;;;;;5087637;28;20635;-88
2022/05/27 02:05:56;;;;;;;1.47;1.20;;;15.70;99.90;;;;;;5086831;28;20611;-88
2022/05/27 02:08:27;;;;;;;1.40;1.30;;;15.70;99.90;;;;;;5088374;28;20652;-87
2022/05/27 02:10:59;;;;;;;1.67;1.30;;;15.70;99.90;;;;;;5089211;28;20659;-88
2022/05/27 02:13:32;;;;;;;1.37;1.27;;;15.70;99.90;;;;;;5088474;28;21170;-88
2022/05/27 02:15:59;;;;;;;2.40;1.37;;;15.70;99.90;;;;;;5084027;28;20626;-87
2022/05/27 02:18:34;;;;;;;2.33;1.23;;;15.70;99.90;;;;;;5086498;28;20740;-88
2022/05/27 02:21:04;;;;;;;1.40;1.30;;;15.70;99.90;;;;;;5083421;28;21005;-88
2022/05/27 02:23:35;;;;;;;1.90;1.30;;;15.70;99.90;;;;;;5088463;28;20624;-88
2022/05/27 02:26:09;;;;;;;1.80;1.00;;;15.70;99.90;;;;;;5090786;28;20596;-88
2022/05/27 02:28:42;;;;;;;2.07;1.43;;;15.70;99.90;;;;;;5080758;28;20633;-87
2022/05/27 02:31:13;;;;;;;1.23;1.13;;;15.70;99.90;;;;;;5086083;28;20655;-87
2022/05/27 02:36:37;;;;;;;1.80;1.70;;;15.70;99.90;;;;;;5085657;28;20665;-88
2022/05/27 02:39:07;;;;;;;2.07;1.57;;;15.60;99.90;;;;;;5088868;28;20659;-88
2022/05/27 02:41:40;;;;;;;1.87;1.23;;;15.60;99.90;;;;;;5083093;28;20637;-88
2022/05/27 02:44:21;;;;;;;1.80;1.40;;;15.40;99.90;;;;;;5087986;28;20981;-88
2022/05/27 02:46:53;;;;;;;2.47;1.80;;;15.40;99.90;;;;;;5087798;28;21680;-88
2022/05/27 02:49:28;;;;;;;1.13;1.00;;;15.40;99.90;;;;;;5085206;28;21201;-88
2022/05/27 02:52:04;;;;;;;1.50;1.40;;;15.40;99.90;;;;;;5087017;28;20615;-88
2022/05/27 02:54:34;;;;;;;2.20;1.47;;;15.50;99.90;;;;;;5082518;28;21049;-87
2022/05/27 02:57:06;;;;;;;2.47;1.50;;;15.40;99.90;;;;;;5086523;28;20631;-88
2022/05/27 02:59:35;;;;;;;1.83;1.70;;;15.40;99.90;;;;;;5086477;28;20680;-88
2022/05/27 03:02:08;;;;;;;2.43;1.50;;;15.40;99.90;;;;;;5087019;28;20631;-87
2022/05/27 03:04:39;;;;;;;2.30;1.40;;;15.30;99.90;;;;;;5086074;28;20631;-88
2022/05/27 03:07:17;;;;;;;1.90;1.40;;;15.30;99.90;;;;;;5082307;28;20628;-87
2022/05/27 03:09:52;;;;;;;3.03;1.30;;;15.40;99.90;;;;;;5088332;28;20980;-88
2022/05/27 03:12:34;;;;;;;2.77;1.20;;;15.40;99.90;;;;;;5077998;28;20720;-88
2022/05/27 03:15:20;;;;;;;1.53;1.43;;;15.30;99.90;;;;;;5089801;28;20632;-88
2022/05/27 03:17:59;;;;;;;1.20;1.10;;;15.40;99.90;;;;;;5090116;28;20714;-88
2022/05/27 03:20:42;;;;;;;1.77;1.10;;;15.40;99.90;;;;;;5090157;28;20679;-88
2022/05/27 03:23:20;;;;;;;2.90;1.50;;;15.50;99.90;;;;;;5090388;28;20612;-87
2022/05/27 03:25:53;;;;;;;1.50;1.33;;;15.50;99.90;;;;;;5085562;28;20625;-90
2022/05/27 03:28:25;;;;;;;1.53;0.93;;;15.60;99.90;;;;;;5095046;28;20624;-87
2022/05/27 03:31:11;;;;;;;0.87;0.87;;;15.60;99.90;;;;;;5097720;28;20652;-88
2022/05/27 03:33:48;;;;;;;1.90;1.30;;;15.70;99.90;;;;;;5092481;28;20617;-89
2022/05/27 03:36:20;;;;;;;1.30;1.20;;;15.80;99.90;;;;;;5093707;28;21182;-88
2022/05/27 03:38:55;;;;;;;3.00;1.63;;;15.80;99.90;;;;;;5090272;28;20636;-90
2022/05/27 03:41:26;;;;;;;2.10;1.90;;;15.80;99.90;;;;;;5089728;28;20644;-87
2022/05/27 03:43:53;;;;;;;1.60;1.50;;;15.80;99.90;;;;;;5087952;28;20631;-88
2022/05/27 03:46:29;;;;;;;1.80;1.03;;;15.80;99.90;;;;;;5087640;28;20663;-88
2022/05/27 03:48:56;;;;;;;1.53;1.43;;;15.80;99.90;;;;;;5082029;28;20615;-87
2022/05/27 03:51:27;;;;;;;2.00;1.63;;;15.90;99.90;;;;;;5083886;28;20660;-88
2022/05/27 03:54:06;;;;;;;1.10;1.10;;;15.90;99.90;;;;;;5085236;28;21082;-88
2022/05/27 03:56:34;;;;;;;1.40;1.30;;;15.90;99.90;;;;;;5085509;28;20647;-88
2022/05/27 03:59:01;;;;;;;1.50;1.40;;;15.90;99.90;;;;;;5081720;28;20703;-88
2022/05/27 04:01:30;;;;;;;2.23;1.50;;;16.00;99.90;;;;;;5082646;28;20652;-87
2022/05/27 04:03:58;;;;;;;3.57;1.90;;;16.10;99.90;;;;;;5082374;28;20635;-88
2022/05/27 04:06:27;;;;;;;2.33;1.40;;;16.10;99.90;;;;;;5085927;28;21131;-88
2022/05/27 04:08:54;;;;;;;1.90;1.67;;;16.10;99.90;;;;;;5084101;28;20632;-88
2022/05/27 04:11:21;;;;;;;3.27;2.03;;;16.10;99.90;;;;;;5084731;28;20636;-87
2022/05/27 04:13:48;;;;;;;1.53;1.43;;;16.10;99.90;;;;;;5085409;28;21006;-87
2022/05/27 04:16:15;;;;;;;2.43;1.80;;;16.20;99.90;;;;;;5081863;28;20628;-88
2022/05/27 04:18:42;;;;;;;4.60;1.67;;;16.20;99.90;;;;;;5085293;28;20628;-88
2022/05/27 04:21:09;;;;;;;2.30;2.10;;;16.20;99.90;;;;;;5085155;28;20686;-87
2022/05/27 04:23:38;;;;;;;3.00;1.70;;;16.20;99.90;;;;;;5083584;28;20967;-88
2022/05/27 04:26:06;;;;;;;3.47;2.00;;;16.20;99.90;;;;;;5082059;28;20689;-88
2022/05/27 04:28:34;;;;;;;2.33;1.70;;;16.00;99.90;;;;;;5083022;28;20647;-88
2022/05/27 04:31:02;;;;;;;4.23;2.10;;;16.00;99.90;;;;;;5085756;28;21213;-88
2022/05/27 04:33:29;;;;;;;2.20;2.00;;;15.90;99.90;;;;;;5085082;28;20624;-88
2022/05/27 04:35:56;;;;;;;2.00;1.80;;;16.00;99.90;;;;;;5084692;28;20635;-88
2022/05/27 04:38:25;;;;;;;2.73;1.80;;;15.90;99.90;;;;;;5085204;28;20646;-88
2022/05/27 04:40:53;;;;;;;3.43;2.03;;;16.00;99.90;;;;;;5084826;28;20706;-88
2022/05/27 04:43:20;;;;;;;2.37;2.17;;;16.00;99.90;;;;;;5084127;28;20675;-87
2022/05/27 04:45:47;;;;;;;2.10;1.90;;;16.10;99.90;;;;;;5086428;28;21263;-88
2022/05/27 04:48:14;;;;;;;1.93;1.83;;;16.10;99.90;;;;;;5085881;28;20660;-87
2022/05/27 04:50:41;;;;;;;4.77;2.07;;;16.00;99.90;;;;;;5084367;28;20651;-88
2022/05/27 04:53:09;;;;;;;2.20;2.00;;;16.10;99.90;;;;;;5079710;28;20633;-88
2022/05/27 04:55:37;;;;;;;2.60;1.77;;;16.20;99.90;;;;;;5085263;28;20679;-88
2022/05/27 04:58:06;;;;;;;1.80;1.63;;;16.30;99.90;;;;;;5087899;28;20628;-88
2022/05/27 05:00:38;;;;;;;3.30;1.90;;;16.40;99.90;;;;;;5104618;28;20660;-87
2022/05/27 05:03:05;;;;;;;3.17;2.00;;;16.40;99.90;;;;;;5099563;28;20632;-88
2022/05/27 05:05:34;;;;;;;2.57;1.70;;;16.50;99.90;;;;;;5085659;28;20632;-88
2022/05/27 05:08:04;;;;;;;2.67;1.90;;;16.50;99.90;;;;;;5082382;28;21147;-87
2022/05/27 05:10:31;;;;;;;2.70;1.63;;;16.60;99.90;;;;;;5083562;28;20650;-88
2022/05/27 05:12:58;;;;;;;2.80;2.00;;;16.70;99.90;;;;;;5085659;28;20628;-88
2022/05/27 05:15:28;;;;;;;3.10;1.60;;;16.70;99.90;;;;;;5083411;28;20651;-88
2022/05/27 05:17:55;;;;;;;3.20;1.90;;;16.60;99.90;;;;;;5089501;28;20639;-87
2022/05/27 05:20:24;;;;;;;2.67;1.80;;;16.70;99.90;;;;;;5086822;28;20675;-88
2022/05/27 05:22:51;;;;;;;3.37;2.30;;;16.70;99.90;;;;;;5090468;28;21224;-88
2022/05/27 05:25:18;;;;;;;11.17;2.60;;;16.80;99.90;;;;;;5084889;28;21313;-87
2022/05/27 05:27:45;;;;;;;5.03;1.53;;;16.80;99.90;;;;;;5084845;28;20632;-88
2022/05/27 05:30:15;;;;;;;4.33;2.10;;;16.90;99.90;;;;;;5087503;28;21190;-88
2022/05/27 05:32:43;;;;;;;1.67;1.47;;;16.90;99.90;;;;;;5085913;28;20647;-88
2022/05/27 05:35:12;;;;;;;2.50;1.73;;;16.90;99.90;;;;;;5085059;28;20628;-88
2022/05/27 05:37:39;;;;;;;5.47;2.10;;;17.00;99.90;;;;;;5084737;28;20628;-88
2022/05/27 05:40:07;;;;;;;3.07;1.80;;;17.00;99.90;;;;;;5089474;28;20678;-88
2022/05/27 05:42:34;;;;;;;6.67;1.77;;;17.00;99.90;;;;;;5086502;28;21111;-87
2022/05/27 05:45:01;;;;;;;4.30;1.77;;;17.10;99.90;;;;;;5085433;28;20621;-87
2022/05/27 05:47:27;;;;;;;2.53;1.83;;;17.20;99.90;;;;;;5087748;28;20777;-88
2022/05/27 05:49:56;;;;;;;2.40;1.80;;;17.10;99.90;;;;;;5089053;28;20658;-88
2022/05/27 05:52:22;;;;;;;3.60;2.63;;;17.20;99.90;;;;;;5088981;28;20624;-88
2022/05/27 05:54:49;;;;;;;3.10;1.60;;;17.20;99.90;;;;;;5088447;28;20613;-89
2022/05/27 05:57:16;;;;;;;3.53;1.70;;;17.30;99.90;;;;;;5087547;28;20623;-89
2022/05/27 05:59:44;;;;;;;2.30;1.70;;;17.20;99.90;;;;;;5089090;28;20636;-88
2022/05/27 06:02:11;;;;;;;3.73;1.90;;;17.20;99.90;;;;;;5088561;28;20611;-88
2022/05/27 06:04:38;;;;;;;1.93;1.60;;;17.30;99.90;;;;;;5085691;28;20661;-89
2022/05/27 06:07:06;;;;;;;1.50;1.07;;;17.30;99.90;;;;;;5089401;28;20632;-88
2022/05/27 06:09:33;;;;;;;1.63;1.53;;;17.40;99.90;;;;;;5086842;28;20661;-88
2022/05/27 06:12:03;;;;;;;3.10;2.20;;;17.30;99.90;;;;;;5089209;28;21111;-88
2022/05/27 06:14:29;;;;;;;2.60;1.77;;;17.30;99.90;;;;;;5087434;28;21156;-89
2022/05/27 06:16:56;;;;;;;2.60;1.60;;;17.30;99.90;;;;;;5084656;28;20616;-88
2022/05/27 06:19:23;;;;;;;2.53;1.70;;;17.40;99.90;;;;;;5095111;28;20613;-88
2022/05/27 06:21:51;;;;;;;3.80;2.07;;;17.40;99.90;;;;;;5086845;28;21004;-88
2022/05/27 06:24:26;;;;;;;4.10;2.47;;;17.30;99.90;;;;;;5086839;28;20596;-88
2022/05/27 06:27:01;;;;;;;1.77;1.43;;;17.30;99.90;;;;;;5086226;28;20688;-88
2022/05/27 06:34:56;;;;;;;2.47;2.20;;;17.50;99.90;;;;;;5089627;28;21340;-88
2022/05/27 06:37:23;;;;;;;2.57;1.80;;;17.40;99.90;;;;;;5088524;28;21006;-88
2022/05/27 06:39:55;;;;;;;1.40;1.30;;;17.50;99.90;;;;;;5087452;28;21252;-88
2022/05/27 06:42:22;;;;;;;3.60;1.87;;;17.60;99.90;;;;;;5085067;28;21261;-88
2022/05/27 06:44:49;;;;;;;1.87;1.77;;;17.60;99.90;;;;;;5089807;28;20627;-88
2022/05/27 06:47:16;;;;;;;2.07;1.80;;;17.50;99.90;;;;;;5087473;28;20966;-88
2022/05/27 06:49:44;;;;;;;2.60;2.00;;;17.50;99.90;;;;;;5084186;28;21244;-88
2022/05/27 06:52:13;;;;;;;2.50;1.80;;;17.40;99.90;;;;;;5083230;28;20731;-88
2022/05/27 06:54:41;;;;;;;2.90;1.70;;;17.40;99.90;;;;;;5087106;28;20678;-89
2022/05/27 06:57:10;;;;;;;2.53;1.77;;;17.30;99.90;;;;;;5083501;28;20988;-88
2022/05/27 06:59:38;;;;;;;1.57;1.47;;;17.20;99.90;;;;;;5083101;28;20733;-88
2022/05/27 07:02:06;;;;;;;2.43;1.70;;;17.20;99.90;;;;;;5088611;28;20675;-88
2022/05/27 07:04:32;;;;;;;2.40;1.90;;;17.30;99.90;;;;;;5083044;28;21159;-88
2022/05/27 07:07:00;;;;;;;4.73;1.93;;;17.30;99.90;;;;;;5089260;28;20640;-88
2022/05/27 07:09:27;;;;;;;3.70;2.20;;;17.40;99.90;;;;;;5085223;28;20644;-88
2022/05/27 07:11:56;;;;;;;3.10;1.73;;;17.50;99.90;;;;;;5086948;28;20632;-89
2022/05/27 07:14:24;;;;;;;4.27;2.30;;;17.60;99.90;;;;;;5084456;28;21179;-88
2022/05/27 07:16:52;;;;;;;3.10;2.30;;;17.70;99.90;;;;;;5087630;28;20996;-88
2022/05/27 07:19:20;;;;;;;5.10;2.30;;;17.50;99.90;;;;;;5085337;28;21026;-88
2022/05/27 07:21:48;;;;;;;2.33;2.10;;;17.50;99.90;;;;;;5084587;28;21027;-88
2022/05/27 07:24:17;;;;;;;4.40;3.00;;;17.50;99.90;;;;;;5087431;28;20611;-88
2022/05/27 07:26:45;;;;;;;3.53;2.37;;;17.60;99.90;;;;;;5087093;28;20628;-88
2022/05/27 07:29:13;;;;;;;2.90;1.57;;;17.50;99.90;;;;;;5086356;28;20656;-88
2022/05/27 07:31:43;;;;;;;2.03;1.67;;;17.40;99.90;;;;;;5084608;28;20620;-88
2022/05/27 07:34:10;;;;;;;2.27;1.97;;;17.50;99.90;;;;;;5086554;28;20619;-89
2022/05/27 07:36:38;;;;;;;2.73;2.50;;;17.50;99.90;;;;;;5083441;28;20624;-88
2022/05/27 07:39:05;;;;;;;2.43;2.10;;;17.40;99.90;;;;;;5082422;28;21034;-88
2022/05/27 07:41:32;;;;;;;3.20;2.20;;;17.40;99.90;;;;;;5085975;28;21191;-89
2022/05/27 07:44:01;;;;;;;3.30;2.40;;;17.40;99.90;;;;;;5087273;28;20626;-88
2022/05/27 07:46:30;;;;;;;3.50;2.20;;;17.40;99.90;;;;;;5085780;28;20631;-88
2022/05/27 07:48:58;;;;;;;3.97;2.27;;;17.50;99.90;;;;;;5087163;28;20619;-88
2022/05/27 07:51:25;;;;;;;3.13;2.47;;;17.50;99.90;;;;;;5086780;28;20644;-88
2022/05/27 07:53:52;;;;;;;2.30;2.10;;;17.60;99.90;;;;;;5084829;28;20633;-88
2022/05/27 07:56:19;;;;;;;1.90;1.80;;;17.60;99.90;;;;;;5086842;28;20727;-88
2022/05/27 07:58:46;;;;;;;2.93;2.53;;;17.40;99.90;;;;;;5086534;28;20628;-88
2022/05/27 08:01:13;;;;;;;3.67;2.53;;;17.40;99.90;;;;;;5086227;28;21084;-88
2022/05/27 08:03:41;;;;;;;3.20;2.27;;;17.40;99.90;;;;;;5083442;28;20768;-88
2022/05/27 08:06:09;;;;;;;2.73;2.00;;;17.40;99.90;;;;;;5082083;28;21204;-88
2022/05/27 08:08:37;;;;;;;4.87;2.70;;;17.60;99.90;;;;;;5085599;28;20626;-88
2022/05/27 08:11:04;;;;;;;4.50;2.90;;;17.60;99.90;;;;;;5086645;28;21251;-88
2022/05/27 08:13:30;;;;;;;4.57;2.80;;;17.60;99.90;;;;;;5089180;28;20632;-88
2022/05/27 08:15:58;;;;;;;2.93;2.30;;;17.60;99.90;;;;;;5087809;28;21193;-88
2022/05/27 08:18:25;;;;;;;2.30;2.10;;;17.70;99.90;;;;;;5084512;28;20719;-88
2022/05/27 08:20:52;;;;;;;2.77;2.40;;;17.80;99.90;;;;;;5088219;28;20676;-88
2022/05/27 08:23:20;;;;;;;3.43;2.60;;;17.90;99.90;;;;;;5090585;28;20638;-88
2022/05/27 08:25:47;;;;;;;2.87;2.40;;;17.80;99.90;;;;;;5089996;28;20718;-88
2022/05/27 08:28:13;;;;;;;4.53;3.07;;;17.80;99.90;;;;;;5093097;28;20638;-88
2022/05/27 08:30:40;;;;;;;3.03;2.70;;;17.80;99.90;;;;;;5088612;28;20640;-88
2022/05/27 08:33:08;;;;;;;3.33;2.00;;;17.80;99.90;;;;;;5087669;28;20717;-88
2022/05/27 08:38:27;;;;;;;4.53;2.23;;;17.80;99.90;;;;;;5081166;28;20603;-89
2022/05/27 08:41:11;;;;;;;5.73;2.23;;;17.90;99.90;;;;;;5084933;28;20682;-88
2022/05/27 08:43:48;;;;;;;5.10;2.40;;;18.10;99.90;;;;;;5083136;28;20604;-88
2022/05/27 08:46:24;;;;;;;5.60;2.20;;;18.10;99.90;;;;;;5085957;28;21393;-88
2022/05/27 08:49:01;;;;;;;2.80;2.60;;;18.10;99.90;;;;;;5084624;28;20667;-89
2022/05/27 08:51:34;;;;;;;3.00;1.67;;;18.20;99.90;;;;;;5090135;28;20681;-89
2022/05/27 08:54:07;;;;;;;5.93;2.10;;;18.10;99.90;;;;;;5097432;28;20620;-89
2022/05/27 08:59:31;;;;;;;2.87;2.30;;;17.80;99.90;;;;;;5097075;28;20708;-89
2022/05/27 09:02:04;;;;;;;5.70;2.10;;;18.00;99.90;;;;;;5093927;28;20652;-88
2022/05/27 09:04:36;;;;;;;2.93;2.70;;;18.10;99.90;;;;;;5098976;28;20640;-89
2022/05/27 09:07:14;;;;;;;4.37;2.00;;;18.10;99.90;;;;;;5102719;28;20616;-88
2022/05/27 09:09:42;;;;;;;2.33;2.13;;;18.20;99.90;;;;;;5102693;28;20690;-88
2022/05/27 09:12:30;;;;;;;3.90;1.83;;;18.20;99.90;;;;;;5104126;28;20617;-89
2022/05/27 09:15:02;;;;;;;2.37;1.80;;;18.30;99.90;;;;;;5100604;28;20771;-89
2022/05/27 09:17:42;;;;;;;2.57;1.70;;;18.40;99.90;;;;;;5094273;28;20624;-89
2022/05/27 09:20:21;;;;;;;3.47;1.63;;;18.60;99.90;;;;;;5099262;28;20644;-89
2022/05/27 09:23:00;;;;;;;1.73;1.60;;;18.80;99.90;;;;;;5099288;28;20784;-89
2022/05/27 09:25:39;;;;;;;2.63;1.83;;;19.00;99.90;;;;;;5101427;28;20654;-88
2022/05/27 09:28:14;;;;;;;1.90;1.70;;;19.20;99.90;;;;;;5102089;28;20627;-88
2022/05/27 09:30:42;;;;;;;3.03;1.80;;;19.30;99.90;;;;;;5099449;28;20716;-89
2022/05/27 09:33:13;;;;;;;3.77;2.63;;;19.40;99.90;;;;;;5102558;28;20632;-88
2022/05/27 09:35:47;;;;;;;2.20;2.00;;;19.30;99.90;;;;;;5097929;28;20616;-89
2022/05/27 09:38:18;;;;;;;2.00;1.80;;;19.40;99.90;;;;;;5088259;28;20619;-88
2022/05/27 09:40:50;;;;;;;2.70;1.83;;;19.50;99.90;;;;;;5087223;28;20641;-88
2022/05/27 09:43:22;;;;;;;1.67;1.57;;;19.50;99.90;;;;;;5091556;28;20616;-88
2022/05/27 09:45:55;;;;;;;1.97;1.40;;;19.40;99.90;;;;;;5089253;28;20624;-88
2022/05/27 09:48:22;;;;;;;1.70;1.60;;;19.30;99.90;;;;;;5079936;28;20727;-89
2022/05/27 09:50:50;;;;;;;2.13;1.30;;;19.40;99.90;;;;;;5088456;28;20686;-89
2022/05/27 09:53:20;;;;;;;1.37;1.27;;;19.40;99.90;;;;;;5087607;28;20631;-91
2022/05/27 09:55:53;;;;;;;2.17;1.43;;;19.50;99.40;;;;;;5087369;28;21178;-88
2022/05/27 09:58:25;;;;;;;2.20;1.90;;;19.50;99.30;;;;;;5086841;28;20616;-89
2022/05/27 10:00:56;;;;;;;2.47;1.50;;;19.50;99.70;;;;;;5086704;28;20659;-90
2022/05/27 10:03:36;;;;;;;3.03;1.23;;;19.60;99.70;;;;;;5081741;28;21001;-90
2022/05/27 10:06:08;;;;;;;2.00;1.37;;;19.70;98.70;;;;;;5079425;28;20628;-90
2022/05/27 10:08:40;;;;;;;2.20;1.70;;;19.60;97.10;;;;;;5081371;28;20715;-90
2022/05/27 10:11:17;;;;;;;1.40;1.30;;;19.50;96.90;;;;;;5081306;28;20663;-90
2022/05/27 10:13:44;;;;;;;5.00;0.93;;;19.60;97.30;;;;;;5085768;28;20620;-90
2022/05/27 10:16:15;;;;;;;3.50;1.77;;;19.60;97.30;;;;;;5086804;28;20631;-90
2022/05/27 10:18:44;;;;;;;1.87;1.47;;;19.70;97.60;;;;;;5082755;28;20766;-90
2022/05/27 10:21:14;;;;;;;3.20;1.60;;;20.00;97.40;;;;;;5085721;28;20691;-89
2022/05/27 10:23:42;;;;;;;2.07;1.43;;;20.00;96.90;;;;;;5089521;28;20627;-89
2022/05/27 10:26:26;;;;;;;2.40;1.50;;;20.00;97.10;;;;;;5094067;28;20678;-90
2022/05/27 10:28:59;;;;;;;1.97;1.50;;;20.20;96.20;;;;;;5083572;28;20603;-90
2022/05/27 10:31:26;;;;;;;6.07;1.93;;;20.10;96.70;;;;;;5086822;28;20641;-90
2022/05/27 10:33:54;;;;;;;1.40;1.30;;;20.30;96.00;;;;;;5101349;28;20628;-90
2022/05/27 10:36:52;;;;;;;2.07;1.30;;;20.60;96.30;;;;;;5112785;28;20717;-90
2022/05/27 10:39:27;;;;;;;2.40;1.17;;;20.80;95.10;;;;;;5092611;28;20616;-90
2022/05/27 10:42:06;;;;;;;1.30;1.20;;;20.80;94.20;;;;;;5089049;28;20647;-90
2022/05/27 10:44:40;;;;;;;1.70;1.60;;;20.90;94.30;;;;;;5088247;28;20662;-89
2022/05/27 10:47:14;;;;;;;1.57;1.27;;;21.00;93.60;;;;;;5084793;28;20624;-90
2022/05/27 10:49:55;;;;;;;1.20;1.10;;;21.10;93.40;;;;;;5088145;28;20643;-90
2022/05/27 10:52:37;;;;;;;3.07;1.63;;;21.00;93.30;;;;;;5081924;28;20628;-90
2022/05/27 10:55:15;;;;;;;3.10;1.33;;;21.00;93.10;;;;;;5085544;28;20616;-90
2022/05/27 11:04:07;;;;;;;1.33;1.23;;;21.10;94.00;;;;;;5088084;28;20678;-90
2022/05/27 11:06:48;;;;;;;2.60;1.50;;;21.40;93.30;;;;;;5082385;28;20632;-90
2022/05/27 11:09:29;;;;;;;2.70;1.23;;;21.50;93.20;;;;;;5089379;28;20912;-90
2022/05/27 11:12:03;;;;;;;1.97;1.73;;;21.10;92.80;;;;;;5092029;28;20634;-90
2022/05/27 11:17:50;;;;;;;1.60;1.50;;;21.10;92.20;;;;;;5082011;28;20584;-90
2022/05/27 11:20:45;;;;;;;1.37;1.20;;;21.20;92.30;;;;;;5088427;28;20656;-90
2022/05/27 11:23:39;;;;;;;1.30;1.10;;;21.30;92.70;;;;;;5068040;28;20725;-90
2022/05/27 11:26:16;;;;;;;1.27;1.00;;;21.40;92.30;;;;;;5086012;28;20979;-90
2022/05/27 11:29:21;;;;;;;1.40;1.30;;;21.30;92.10;;;;;;5091114;28;20953;-90
2022/05/27 11:31:58;;;;;;;1.20;1.10;;;20.90;92.30;;;;;;5089254;28;20631;-90
2022/05/27 11:34:29;;;;;;;1.17;1.00;;;20.90;92.30;;;;;;5093971;28;20622;-90
2022/05/27 11:37:22;;;;;;;1.43;1.00;;;20.80;92.80;;;;;;5095281;28;20647;-90
2022/05/27 11:40:15;;;;;;;1.40;1.30;;;20.90;93.10;;;;;;5087102;28;20650;-90
2022/05/27 11:43:42;;;;;;;1.63;1.40;;;20.80;92.60;;;;;;5087366;28;20678;-90
2022/05/27 11:46:34;;;;;;;1.60;1.33;;;20.80;92.70;;;;;;5092418;28;21185;-89
2022/05/27 11:49:26;;;;;;;1.73;1.47;;;20.70;92.60;;;;;;5087485;28;20615;-89
2022/05/27 11:52:05;;;;;;;1.20;1.10;;;20.80;92.60;;;;;;5084301;28;20707;-89
2022/05/27 11:54:52;;;;;;;1.03;1.03;;;20.90;92.70;;;;;;5090014;28;20743;-89
2022/05/27 11:57:31;;;;;;;2.03;1.17;;;20.90;93.00;;;;;;5087332;28;20627;-89
2022/05/27 12:00:03;;;;;;;1.27;1.00;;;20.90;92.60;;;;;;5076679;28;20656;-89
2022/05/27 12:02:36;;;;;;;1.50;1.40;;;20.90;93.10;;;;;;5089868;28;20652;-88
2022/05/27 12:05:11;;;;;;;1.03;0.90;;;20.90;92.50;;;;;;5077806;28;20991;-89
2022/05/27 12:07:43;;;;;;;2.20;1.10;;;20.90;92.80;;;;;;5086764;28;20959;-89
2022/05/27 12:10:22;;;;;;;1.90;1.10;;;20.90;93.00;;;;;;5088919;28;20652;-89
2022/05/27 12:12:54;;;;;;;3.23;1.10;;;21.00;93.20;;;;;;5088536;28;20933;-89
2022/05/27 12:15:27;;;;;;;1.77;1.23;;;21.20;92.80;;;;;;5089636;28;20632;-88
2022/05/27 12:17:56;;;;;;;1.43;1.30;;;21.30;92.50;;;;;;5082162;28;20616;-89
2022/05/27 12:20:29;;;;;;;6.37;1.10;;;21.60;92.40;;;;;;5088533;28;20728;-89
2022/05/27 12:22:58;;;;;;;3.13;1.10;;;21.70;91.80;;;;;;5088046;28;20664;-89
2022/05/27 12:25:29;;;;;;;1.17;1.07;;;21.60;92.00;;;;;;5089774;28;21249;-89
2022/05/27 12:28:00;;;;;;;2.60;1.10;;;21.70;92.00;;;;;;5085789;28;20984;-90
2022/05/27 12:30:31;;;;;;;0.90;0.90;;;21.70;92.50;;;;;;5085675;28;20643;-90
2022/05/27 12:32:59;;;;;;;1.77;1.20;;;21.80;91.90;;;;;;5080827;28;20668;-89
2022/05/27 12:35:44;;;;;;;1.93;1.80;;;21.60;92.30;;;;;;5084209;28;20951;-88
2022/05/27 12:38:15;;;;;;;1.20;1.03;;;21.40;92.50;;;;;;5079347;28;20688;-89
2022/05/27 12:40:47;;;;;;;2.10;0.90;;;21.30;92.90;;;;;;5092308;28;20636;-90
2022/05/27 12:43:27;;;;;;;1.63;1.33;;;21.30;92.80;;;;;;5092493;28;20750;-90
2022/05/27 12:45:56;;;;;;;1.87;1.40;;;21.20;93.10;;;;;;5088177;28;20662;-89
2022/05/27 12:48:31;;;;;;;4.77;1.53;;;21.30;92.90;;;;;;5085242;28;20696;-89
2022/05/27 12:51:02;;;;;;;1.50;1.20;;;21.20;93.20;;;;;;5093088;28;20708;-88
2022/05/27 12:53:45;;;;;;;2.20;1.47;;;21.20;93.20;;;;;;5090611;28;21182;-89
2022/05/27 13:02:47;;;;;;;1.50;1.40;;;20.90;93.90;;;;;;5093679;28;20747;-89
2022/05/27 13:05:18;;;;;;;1.53;0.90;;;20.80;93.50;;;;;;5092697;28;20968;-88
2022/05/27 13:07:52;;;;;;;1.50;1.20;;;20.80;93.90;;;;;;5092569;28;20905;-89
2022/05/27 13:10:44;;;;;;;1.80;1.43;;;20.90;93.90;;;;;;5095048;28;20640;-90
2022/05/27 13:13:15;;;;;;;1.30;1.20;;;20.80;94.20;;;;;;5076092;28;21194;-89
2022/05/27 13:15:53;;;;;;;1.53;1.03;;;20.80;94.20;;;;;;5082627;28;20756;-89
2022/05/27 13:18:27;;;;;;;2.37;1.20;;;20.80;94.50;;;;;;5081713;28;20673;-89
2022/05/27 13:21:02;;;;;;;1.70;1.13;;;20.80;94.50;;;;;;5086190;28;20762;-88
2022/05/27 13:23:32;;;;;;;1.60;1.17;;;20.70;94.10;;;;;;5081718;28;21022;-90
2022/05/27 13:26:06;;;;;;;1.47;1.00;;;20.70;94.80;;;;;;5081121;28;20625;-89
2022/05/27 13:28:37;;;;;;;1.70;1.50;;;20.70;94.70;;;;;;5083654;28;20636;-90
2022/05/27 13:31:10;;;;;;;1.37;1.27;;;20.60;94.80;;;;;;5083505;28;20680;-89
2022/05/27 13:33:46;;;;;;;1.73;1.63;;;20.50;94.90;;;;;;5084977;28;20580;-89
2022/05/27 13:36:19;;;;;;;1.50;1.40;;;20.40;95.30;;;;;;5084577;28;20595;-89
2022/05/27 13:38:54;;;;;;;1.97;1.37;;;20.30;95.50;;;;;;5079450;28;20648;-89
2022/05/27 13:41:21;;;;;;;2.23;2.03;;;20.40;95.60;;;;;;5084320;28;20754;-89
2022/05/27 13:43:53;;;;;;;1.23;1.13;;;20.30;95.60;;;;;;5083819;28;20656;-89
2022/05/27 13:46:26;;;;;;;1.03;0.93;;;20.40;95.60;;;;;;5085579;28;20650;-88